Time;durP1;ratioP1;P1;durP2;ratioP2;P2;SDS_P1;SDS_P2;PMS_P1;PMS_P2;Temp;Humidity;BMP_temperature;BMP_pressure;BME280_temperature;BME280_humidity;BME280_pressure;Samples;Min_cycle;Max_cycle;Signal;HPM_P1;HPM_P2
2021/05/03 00:00:59;;;;;;;3.10;1.43;;;6.90;99.90;;;;;;4997028;28;21222;-80
2021/05/03 00:03:24;;;;;;;1.70;1.27;;;6.80;99.90;;;;;;5025578;28;20221;-80
2021/05/03 00:05:56;;;;;;;0.83;0.70;;;6.80;99.90;;;;;;5043646;28;20229;-80
2021/05/03 00:08:25;;;;;;;0.80;0.80;;;6.80;99.90;;;;;;5043213;28;20226;-81
2021/05/03 00:10:52;;;;;;;0.70;0.70;;;6.90;99.90;;;;;;5043453;28;20188;-81
2021/05/03 00:13:19;;;;;;;1.03;0.93;;;6.90;99.90;;;;;;5027865;28;20279;-82
2021/05/03 00:15:45;;;;;;;0.70;0.70;;;6.90;99.90;;;;;;5044017;28;20300;-81
2021/05/03 00:18:11;;;;;;;0.70;0.70;;;7.00;99.90;;;;;;5044001;28;20244;-81
2021/05/03 00:20:37;;;;;;;0.80;0.80;;;7.00;99.90;;;;;;5050913;28;20229;-82
2021/05/03 00:23:03;;;;;;;0.70;0.70;;;7.00;99.90;;;;;;5049207;28;20652;-80
2021/05/03 00:25:29;;;;;;;0.63;0.63;;;7.00;99.90;;;;;;5013776;28;20200;-80
2021/05/03 00:27:55;;;;;;;7.30;1.10;;;7.00;99.90;;;;;;5028220;28;20414;-80
2021/05/03 00:30:21;;;;;;;0.70;0.70;;;7.10;99.90;;;;;;5048047;28;20217;-81
2021/05/03 00:32:47;;;;;;;1.33;1.23;;;7.10;99.90;;;;;;5048370;28;20658;-79
2021/05/03 00:35:16;;;;;;;0.83;0.70;;;7.20;99.90;;;;;;5030976;28;20213;-82
2021/05/03 00:37:42;;;;;;;0.63;0.63;;;7.20;99.90;;;;;;5031609;28;20214;-80
2021/05/03 00:40:09;;;;;;;1.40;1.30;;;7.30;99.90;;;;;;5034112;28;20189;-80
2021/05/03 00:42:35;;;;;;;1.30;1.17;;;7.20;99.90;;;;;;5046820;28;20238;-80
2021/05/03 00:45:11;;;;;;;0.77;0.77;;;7.10;99.90;;;;;;5048243;28;20301;-80
2021/05/03 00:47:37;;;;;;;1.40;1.30;;;7.10;99.90;;;;;;5047946;28;20227;-80
2021/05/03 00:50:05;;;;;;;1.77;1.67;;;7.10;99.90;;;;;;5047670;28;20229;-80
2021/05/03 00:52:31;;;;;;;1.10;1.10;;;7.00;99.90;;;;;;5048143;28;20221;-81
2021/05/03 00:54:56;;;;;;;1.40;1.30;;;7.00;99.90;;;;;;5030970;28;20722;-81
2021/05/03 00:57:22;;;;;;;3.70;1.40;;;7.10;99.90;;;;;;5046283;28;21215;-80
2021/05/03 00:59:48;;;;;;;1.10;1.10;;;7.10;99.90;;;;;;5030635;28;20210;-81
2021/05/03 01:02:14;;;;;;;1.00;1.00;;;7.00;99.90;;;;;;5068010;28;20210;-81
2021/05/03 01:04:41;;;;;;;1.57;1.13;;;7.00;99.90;;;;;;5047893;28;20310;-81
2021/05/03 01:07:07;;;;;;;4.43;1.27;;;6.90;99.90;;;;;;5033597;28;20399;-81
2021/05/03 01:09:33;;;;;;;4.07;1.70;;;6.80;99.90;;;;;;5045324;28;21183;-81
2021/05/03 01:11:59;;;;;;;2.00;1.83;;;6.70;99.90;;;;;;5046130;28;20326;-81
2021/05/03 01:14:25;;;;;;;1.70;1.60;;;6.70;99.90;;;;;;5032077;28;20210;-81
2021/05/03 01:16:50;;;;;;;2.70;1.60;;;6.70;99.90;;;;;;5029652;28;20252;-81
2021/05/03 01:19:21;;;;;;;1.37;1.23;;;6.70;99.90;;;;;;5050291;28;20681;-80
2021/05/03 01:21:47;;;;;;;2.00;1.30;;;6.70;99.90;;;;;;5016540;28;20283;-79
2021/05/03 01:24:13;;;;;;;1.60;1.50;;;6.60;99.90;;;;;;5047026;28;20299;-80
2021/05/03 01:26:39;;;;;;;2.10;1.90;;;6.70;99.90;;;;;;5028196;28;20260;-80
2021/05/03 01:29:05;;;;;;;1.30;1.20;;;6.70;99.90;;;;;;5020322;28;20312;-80
2021/05/03 01:31:31;;;;;;;1.63;1.53;;;6.70;99.90;;;;;;5032988;28;20280;-80
2021/05/03 01:34:05;;;;;;;2.80;1.60;;;6.80;99.90;;;;;;5029362;28;20697;-81
2021/05/03 01:36:31;;;;;;;1.83;1.73;;;6.90;99.90;;;;;;5046887;28;20271;-82
2021/05/03 01:38:57;;;;;;;5.93;1.60;;;6.90;99.90;;;;;;5044140;28;20633;-81
2021/05/03 01:41:22;;;;;;;1.23;1.10;;;6.90;99.90;;;;;;5045874;28;20686;-82
2021/05/03 01:43:48;;;;;;;2.73;2.10;;;7.00;99.90;;;;;;5028882;28;20193;-81
2021/05/03 01:46:14;;;;;;;3.80;1.10;;;7.10;99.90;;;;;;5049250;28;20209;-82
2021/05/03 01:48:40;;;;;;;1.80;1.70;;;7.10;99.90;;;;;;5046433;28;20442;-82
2021/05/03 01:51:06;;;;;;;3.87;1.40;;;7.10;99.90;;;;;;5045819;28;20706;-80
2021/05/03 01:53:32;;;;;;;2.63;1.60;;;7.10;99.90;;;;;;5047658;28;20283;-82
2021/05/03 01:55:58;;;;;;;2.07;1.97;;;7.10;99.90;;;;;;5028058;28;20650;-81
2021/05/03 01:58:25;;;;;;;1.77;1.57;;;7.10;99.90;;;;;;5014594;28;20856;-81
2021/05/03 02:00:52;;;;;;;2.43;1.90;;;7.10;99.90;;;;;;5047336;28;20308;-79
2021/05/03 02:03:26;;;;;;;5.03;1.90;;;7.10;99.90;;;;;;5043886;28;20226;-80
2021/05/03 02:05:52;;;;;;;2.47;1.23;;;7.20;99.90;;;;;;5064676;28;20753;-78
2021/05/03 02:08:18;;;;;;;4.63;1.33;;;7.20;99.90;;;;;;5033130;28;20204;-83
2021/05/03 02:10:45;;;;;;;1.30;1.20;;;7.20;99.90;;;;;;5066658;28;20196;-79
2021/05/03 02:13:11;;;;;;;2.50;1.87;;;7.20;99.90;;;;;;5035995;28;20236;-81
2021/05/03 02:15:37;;;;;;;1.23;1.13;;;7.20;99.90;;;;;;5049523;28;20224;-81
2021/05/03 02:18:03;;;;;;;1.37;1.23;;;7.20;99.90;;;;;;5067551;28;20222;-80
2021/05/03 02:20:29;;;;;;;4.50;2.30;;;7.20;99.90;;;;;;5032094;28;20705;-81
2021/05/03 02:22:55;;;;;;;4.70;1.37;;;7.00;99.90;;;;;;5030563;28;20217;-80
2021/05/03 02:25:21;;;;;;;2.07;1.87;;;7.10;99.90;;;;;;5035192;28;20215;-80
2021/05/03 02:27:48;;;;;;;1.80;1.70;;;7.10;99.90;;;;;;5065706;28;20229;-80
2021/05/03 02:30:16;;;;;;;4.50;2.47;;;7.00;99.90;;;;;;5049856;28;20205;-80
2021/05/03 02:32:42;;;;;;;4.47;2.40;;;7.00;99.90;;;;;;5047435;28;20245;-80
2021/05/03 02:35:12;;;;;;;3.27;2.57;;;7.00;99.90;;;;;;5047707;28;20284;-82
2021/05/03 02:37:38;;;;;;;2.83;2.00;;;6.90;99.90;;;;;;5048229;28;20254;-78
2021/05/03 02:40:05;;;;;;;3.13;1.83;;;6.90;99.90;;;;;;5066645;28;20246;-82
2021/05/03 02:42:31;;;;;;;3.00;2.70;;;6.90;99.90;;;;;;5065305;28;20269;-79
2021/05/03 02:44:57;;;;;;;3.20;2.67;;;6.90;99.90;;;;;;5031935;28;20216;-82
2021/05/03 02:47:22;;;;;;;2.43;2.23;;;6.80;99.90;;;;;;5031360;28;20248;-80
2021/05/03 02:49:49;;;;;;;2.30;2.10;;;6.80;99.90;;;;;;5031035;28;20309;-81
2021/05/03 02:52:14;;;;;;;3.43;2.40;;;6.80;99.90;;;;;;5066937;28;20189;-81
2021/05/03 02:54:40;;;;;;;6.67;3.00;;;6.80;99.90;;;;;;5046640;28;20270;-82
2021/05/03 02:57:06;;;;;;;2.67;2.47;;;6.80;99.90;;;;;;5064663;28;20229;-78
2021/05/03 02:59:32;;;;;;;2.73;1.67;;;6.70;99.90;;;;;;5047801;28;20221;-82
2021/05/03 03:01:57;;;;;;;1.90;1.70;;;6.70;99.90;;;;;;5045479;28;20223;-79
2021/05/03 03:04:23;;;;;;;2.33;2.13;;;6.80;99.90;;;;;;5016294;28;20197;-79
2021/05/03 03:06:49;;;;;;;7.03;2.23;;;6.70;99.90;;;;;;5013842;28;20710;-79
2021/05/03 03:09:15;;;;;;;2.10;1.87;;;6.80;99.90;;;;;;5030866;28;20756;-79
2021/05/03 03:11:45;;;;;;;3.43;2.70;;;6.70;99.90;;;;;;5040706;28;20339;-81
2021/05/03 03:14:10;;;;;;;2.83;2.20;;;6.70;99.90;;;;;;5047258;28;20220;-80
2021/05/03 03:16:36;;;;;;;5.73;2.33;;;6.80;99.90;;;;;;5048496;28;20631;-80
2021/05/03 03:19:02;;;;;;;2.37;1.83;;;6.80;99.90;;;;;;5043864;28;20729;-82
2021/05/03 03:21:28;;;;;;;1.93;1.67;;;6.80;99.90;;;;;;5029343;28;20275;-82
2021/05/03 03:23:54;;;;;;;2.97;2.03;;;6.70;99.90;;;;;;5050871;28;20223;-82
2021/05/03 03:26:20;;;;;;;3.93;3.07;;;6.70;99.90;;;;;;5035228;28;20221;-82
2021/05/03 03:28:45;;;;;;;4.43;2.87;;;6.70;99.90;;;;;;5044541;28;20196;-79
2021/05/03 03:31:11;;;;;;;4.37;3.97;;;6.80;99.90;;;;;;5050329;28;20181;-81
2021/05/03 03:33:37;;;;;;;5.67;3.70;;;6.80;99.90;;;;;;5066596;28;20307;-80
2021/05/03 03:36:04;;;;;;;4.50;3.27;;;6.90;99.90;;;;;;5031018;28;20239;-80
2021/05/03 03:38:29;;;;;;;3.77;2.70;;;6.90;99.90;;;;;;5049773;28;20231;-81
2021/05/03 03:40:55;;;;;;;3.70;2.80;;;6.90;99.90;;;;;;5047890;28;20220;-82
2021/05/03 03:43:21;;;;;;;3.90;2.53;;;6.90;99.90;;;;;;5016077;28;20967;-81
2021/05/03 03:45:47;;;;;;;3.13;2.73;;;6.90;99.90;;;;;;5048120;28;20217;-81
2021/05/03 03:48:12;;;;;;;3.80;2.67;;;6.90;99.90;;;;;;5030718;28;20217;-81
2021/05/03 03:50:38;;;;;;;4.00;3.00;;;6.90;99.90;;;;;;5066972;28;20220;-82
2021/05/03 03:53:04;;;;;;;3.77;3.37;;;6.90;99.90;;;;;;5047010;28;20277;-81
2021/05/03 03:55:29;;;;;;;3.90;3.53;;;6.80;99.90;;;;;;5017391;28;20205;-82
2021/05/03 03:57:55;;;;;;;5.53;4.20;;;6.80;99.90;;;;;;5031441;28;20339;-82
2021/05/03 04:00:23;;;;;;;4.43;2.97;;;6.80;99.90;;;;;;5065399;28;20235;-80
2021/05/03 04:02:50;;;;;;;4.80;4.40;;;6.80;99.90;;;;;;5032132;28;20848;-83
2021/05/03 04:07:51;;;;;;;1.53;1.00;;;6.60;99.90;;;;;;5052233;28;20192;-80
2021/05/03 04:26:16;;;;;;;5.67;1.83;;;5.80;99.90;;;;;;5050369;28;20225;-82
2021/05/03 04:28:43;;;;;;;2.77;2.37;;;5.70;99.90;;;;;;5049510;28;20287;-82
2021/05/03 04:31:09;;;;;;;2.23;1.70;;;5.80;99.90;;;;;;5047453;28;20185;-82
2021/05/03 04:33:35;;;;;;;2.80;2.60;;;5.80;99.90;;;;;;5066910;28;21038;-82
2021/05/03 04:36:00;;;;;;;3.03;1.87;;;5.80;99.90;;;;;;5047783;28;20214;-82
2021/05/03 04:38:27;;;;;;;2.70;1.80;;;5.80;99.90;;;;;;5014839;28;20232;-81
2021/05/03 04:40:53;;;;;;;3.37;2.57;;;5.70;99.90;;;;;;5032655;28;21110;-82
2021/05/03 04:43:19;;;;;;;2.70;2.40;;;5.70;99.90;;;;;;5036167;28;20196;-81
2021/05/03 04:45:44;;;;;;;11.80;2.30;;;5.80;99.90;;;;;;5048368;28;20218;-82
2021/05/03 04:48:10;;;;;;;2.27;2.07;;;5.80;99.90;;;;;;5033756;28;20755;-83
2021/05/03 04:50:36;;;;;;;2.63;2.10;;;5.80;99.90;;;;;;5017242;28;20727;-83
2021/05/03 04:53:02;;;;;;;1.50;1.40;;;5.80;99.90;;;;;;5033792;28;20756;-82
2021/05/03 04:55:28;;;;;;;1.67;1.57;;;5.80;99.90;;;;;;5018556;28;20195;-82
2021/05/03 04:57:53;;;;;;;3.37;2.47;;;5.80;99.90;;;;;;5032142;28;20288;-82
2021/05/03 05:00:20;;;;;;;2.53;1.80;;;5.80;99.90;;;;;;5049139;28;20236;-81
2021/05/03 05:02:45;;;;;;;3.17;2.90;;;5.90;99.90;;;;;;5066389;28;20236;-81
2021/05/03 05:05:12;;;;;;;3.90;2.37;;;6.00;99.90;;;;;;5049470;28;20745;-82
2021/05/03 05:07:39;;;;;;;2.70;2.40;;;6.10;99.90;;;;;;5048222;28;20205;-83
2021/05/03 05:10:06;;;;;;;3.33;1.70;;;6.20;99.90;;;;;;5034008;28;20185;-83
2021/05/03 05:12:32;;;;;;;3.47;3.17;;;6.30;99.90;;;;;;5045847;28;20217;-81
2021/05/03 05:14:58;;;;;;;2.43;2.23;;;6.40;99.90;;;;;;5065669;28;20229;-80
2021/05/03 05:17:24;;;;;;;3.03;2.70;;;6.40;99.90;;;;;;5048252;28;21271;-83
2021/05/03 05:19:50;;;;;;;4.47;1.90;;;6.40;99.90;;;;;;5030539;28;20629;-83
2021/05/03 05:22:16;;;;;;;2.23;2.03;;;6.30;99.90;;;;;;5016502;28;20192;-81
2021/05/03 05:24:42;;;;;;;2.43;2.07;;;6.30;99.90;;;;;;5036889;28;21065;-83
2021/05/03 05:27:08;;;;;;;3.10;2.83;;;6.30;99.90;;;;;;5033697;28;20224;-80
2021/05/03 05:29:34;;;;;;;2.33;2.13;;;6.20;99.90;;;;;;5047870;28;20796;-83
2021/05/03 05:32:00;;;;;;;3.17;2.53;;;6.20;99.90;;;;;;5032714;28;21269;-81
2021/05/03 05:34:26;;;;;;;1.90;1.77;;;6.20;99.90;;;;;;5047796;28;20191;-81
2021/05/03 05:36:52;;;;;;;4.77;3.60;;;6.20;99.90;;;;;;5032585;28;20259;-80
2021/05/03 05:39:18;;;;;;;2.87;1.67;;;6.20;99.90;;;;;;5050171;28;20789;-80
2021/05/03 05:41:44;;;;;;;2.83;2.40;;;6.10;99.90;;;;;;5050726;28;20227;-81
2021/05/03 05:44:10;;;;;;;2.63;2.43;;;6.20;99.90;;;;;;5066123;28;20299;-82
2021/05/03 05:46:38;;;;;;;2.43;1.97;;;6.20;99.90;;;;;;5052100;28;20280;-81
2021/05/03 05:49:04;;;;;;;2.37;2.17;;;6.10;99.90;;;;;;5053087;28;20263;-81
2021/05/03 05:51:30;;;;;;;4.23;2.90;;;6.10;99.90;;;;;;5049921;28;20692;-82
2021/05/03 05:53:56;;;;;;;4.30;2.93;;;6.20;99.90;;;;;;5036863;28;20335;-80
2021/05/03 05:56:22;;;;;;;2.80;2.60;;;6.20;99.90;;;;;;5051287;28;20228;-81
2021/05/03 05:58:48;;;;;;;2.47;2.27;;;6.20;99.90;;;;;;5050027;28;20201;-80
2021/05/03 06:01:14;;;;;;;2.97;2.57;;;6.30;99.90;;;;;;5068181;28;20200;-81
2021/05/03 06:03:43;;;;;;;3.83;2.87;;;6.30;99.90;;;;;;5052442;28;21187;-80
2021/05/03 06:06:09;;;;;;;3.80;3.07;;;6.40;99.90;;;;;;5032873;28;20237;-80
2021/05/03 06:08:35;;;;;;;6.83;3.97;;;6.50;99.90;;;;;;5034646;28;20270;-81
2021/05/03 06:11:01;;;;;;;4.23;3.63;;;6.70;99.90;;;;;;5035072;28;20228;-81
2021/05/03 06:13:27;;;;;;;5.93;4.93;;;6.80;99.90;;;;;;5051675;28;20196;-78
2021/05/03 06:15:53;;;;;;;5.33;4.77;;;7.00;99.90;;;;;;5048553;28;20241;-80
2021/05/03 06:18:19;;;;;;;6.40;5.87;;;7.10;99.90;;;;;;5032288;28;20791;-80
2021/05/03 06:20:44;;;;;;;9.73;6.53;;;7.20;99.90;;;;;;5053349;28;20216;-80
2021/05/03 06:23:12;;;;;;;14.67;7.73;;;7.50;99.90;;;;;;5031849;28;20728;-79
2021/05/03 06:25:39;;;;;;;12.87;8.00;;;7.90;99.90;;;;;;5063469;28;20181;-80
2021/05/03 06:28:05;;;;;;;10.67;7.23;;;8.30;99.90;;;;;;5045236;28;20227;-81
2021/05/03 06:30:31;;;;;;;13.70;8.10;;;8.60;99.90;;;;;;5066531;28;20664;-83
2021/05/03 06:32:57;;;;;;;17.40;11.03;;;8.70;99.90;;;;;;5064390;28;20791;-82
2021/05/03 06:35:23;;;;;;;22.00;10.37;;;8.90;99.90;;;;;;5046715;28;20288;-82
2021/05/03 06:37:50;;;;;;;15.17;10.47;;;9.10;99.90;;;;;;5033158;28;20781;-82
2021/05/03 06:40:17;;;;;;;16.00;9.10;;;10.10;99.90;;;;;;5053884;28;20194;-82
2021/05/03 06:42:43;;;;;;;24.53;11.67;;;10.90;99.90;;;;;;5067639;28;20232;-81
2021/05/03 06:45:10;;;;;;;18.27;9.50;;;11.80;99.90;;;;;;5032475;28;20209;-82
2021/05/03 06:47:36;;;;;;;15.83;8.10;;;12.70;99.90;;;;;;5035408;28;20304;-81
2021/05/03 06:50:13;;;;;;;11.67;9.37;;;12.30;99.90;;;;;;5048140;28;20205;-82
2021/05/03 06:52:45;;;;;;;18.47;8.80;;;12.60;99.90;;;;;;5031271;28;20217;-81
2021/05/03 06:55:13;;;;;;;12.90;7.73;;;13.00;99.90;;;;;;5034285;28;20254;-81
2021/05/03 06:57:40;;;;;;;15.33;6.63;;;13.50;99.90;;;;;;5030746;28;20323;-82
2021/05/03 07:00:07;;;;;;;10.53;6.57;;;13.40;99.90;;;;;;5047491;28;20216;-83
2021/05/03 07:02:33;;;;;;;14.33;8.03;;;13.20;99.90;;;;;;5007641;28;20315;-82
2021/05/03 07:04:59;;;;;;;8.80;5.33;;;12.70;99.90;;;;;;5029365;28;20737;-81
2021/05/03 07:07:25;;;;;;;8.20;5.17;;;12.40;99.90;;;;;;5049463;28;20229;-81
2021/05/03 07:09:51;;;;;;;9.90;6.73;;;12.50;99.90;;;;;;5032752;28;20717;-81
2021/05/03 07:12:22;;;;;;;8.60;5.50;;;12.40;99.90;;;;;;5013054;28;20221;-82
2021/05/03 07:14:49;;;;;;;8.57;6.67;;;12.40;99.90;;;;;;5032370;28;20227;-81
2021/05/03 07:17:14;;;;;;;7.70;6.07;;;12.20;99.90;;;;;;5063926;28;20315;-82
2021/05/03 07:19:41;;;;;;;13.67;7.07;;;12.20;99.90;;;;;;5046685;28;20558;-81
2021/05/03 07:22:07;;;;;;;11.13;6.83;;;12.80;99.90;;;;;;5049628;28;20212;-81
2021/05/03 07:24:36;;;;;;;13.63;8.93;;;13.90;99.90;;;;;;5049130;28;20299;-82
2021/05/03 07:27:02;;;;;;;10.87;6.07;;;14.50;99.90;;;;;;5029115;28;20279;-82
2021/05/03 07:29:28;;;;;;;13.80;8.13;;;14.30;99.90;;;;;;5063950;28;20212;-81
2021/05/03 07:31:54;;;;;;;9.33;6.83;;;14.20;99.90;;;;;;5014182;28;20227;-82
2021/05/03 07:34:20;;;;;;;9.30;6.23;;;13.40;99.90;;;;;;5032539;28;20627;-81
2021/05/03 07:36:45;;;;;;;10.60;5.97;;;12.20;99.90;;;;;;5028946;28;20216;-82
2021/05/03 07:39:11;;;;;;;19.20;8.27;;;11.60;99.90;;;;;;5047621;28;20547;-81
2021/05/03 07:41:40;;;;;;;13.13;6.27;;;11.20;99.90;;;;;;5067400;28;20236;-82
2021/05/03 07:44:06;;;;;;;10.03;5.30;;;10.80;99.90;;;;;;5031275;28;20243;-81
2021/05/03 07:46:32;;;;;;;11.20;5.70;;;10.90;99.90;;;;;;5048621;28;20255;-82
2021/05/03 07:48:59;;;;;;;7.40;4.97;;;10.80;99.90;;;;;;5045513;28;20228;-82
2021/05/03 07:51:25;;;;;;;8.67;6.97;;;10.80;99.90;;;;;;5029500;28;20885;-83
2021/05/03 07:53:52;;;;;;;11.40;6.83;;;11.00;99.90;;;;;;5047666;28;20217;-81
2021/05/03 07:56:19;;;;;;;14.67;7.30;;;11.50;99.90;;;;;;5031257;28;20216;-81
2021/05/03 07:58:46;;;;;;;9.33;6.03;;;12.00;99.90;;;;;;5032426;28;20224;-80
2021/05/03 08:01:13;;;;;;;14.67;8.00;;;13.20;99.90;;;;;;5049462;28;20181;-81
2021/05/03 08:03:40;;;;;;;13.70;7.93;;;13.80;99.90;;;;;;5063999;28;20308;-82
2021/05/03 08:06:08;;;;;;;10.20;6.33;;;13.70;99.90;;;;;;5041528;28;20248;-83
2021/05/03 08:08:34;;;;;;;8.23;6.00;;;13.20;99.90;;;;;;5055516;28;20217;-83
2021/05/03 08:11:00;;;;;;;15.43;9.13;;;12.90;99.90;;;;;;5028396;28;20267;-82
2021/05/03 08:13:28;;;;;;;10.13;5.93;;;13.00;99.90;;;;;;5044937;28;20182;-80
2021/05/03 08:15:56;;;;;;;10.83;7.23;;;12.70;99.90;;;;;;5041555;28;20570;-81
2021/05/03 08:18:22;;;;;;;7.23;5.80;;;13.10;99.90;;;;;;5026841;28;20234;-81
2021/05/03 08:20:47;;;;;;;9.83;7.23;;;13.80;99.90;;;;;;5024697;28;20245;-81
2021/05/03 08:23:19;;;;;;;8.03;5.17;;;14.50;99.90;;;;;;5009863;28;20754;-80
2021/05/03 08:25:47;;;;;;;12.60;7.93;;;15.40;99.90;;;;;;5041484;28;20395;-81
2021/05/03 08:28:13;;;;;;;6.77;4.00;;;15.90;99.90;;;;;;5044613;28;20186;-80
2021/05/03 08:30:39;;;;;;;10.47;6.60;;;15.60;99.90;;;;;;5043515;28;20231;-81
2021/05/03 08:33:05;;;;;;;6.43;5.27;;;15.60;99.90;;;;;;5025017;28;20219;-82
2021/05/03 08:35:31;;;;;;;6.93;4.77;;;14.90;99.90;;;;;;5028558;28;20958;-81
2021/05/03 08:37:57;;;;;;;8.67;4.07;;;14.10;99.90;;;;;;5041978;28;20276;-81
2021/05/03 08:40:22;;;;;;;7.53;4.77;;;14.20;99.90;;;;;;5047511;28;20224;-82
2021/05/03 08:42:48;;;;;;;5.77;4.83;;;14.50;99.90;;;;;;5048339;28;21164;-81
2021/05/03 08:45:15;;;;;;;7.10;4.73;;;14.90;99.90;;;;;;5046027;28;20225;-81
2021/05/03 08:47:52;;;;;;;4.50;3.87;;;16.90;99.90;;;;;;5030541;28;20252;-81
2021/05/03 08:50:27;;;;;;;5.57;3.17;;;16.60;99.90;;;;;;5046886;28;20708;-81
2021/05/03 08:52:56;;;;;;;5.67;4.77;;;16.10;99.90;;;;;;5045427;28;20216;-81
2021/05/03 08:55:22;;;;;;;6.73;4.17;;;15.80;99.90;;;;;;5031636;28;20243;-81
2021/05/03 08:57:47;;;;;;;4.80;3.50;;;17.00;99.90;;;;;;5045868;28;20233;-82
2021/05/03 09:00:15;;;;;;;4.80;3.50;;;17.00;99.90;;;;;;5030228;28;20240;-82
2021/05/03 09:02:45;;;;;;;4.50;3.80;;;16.10;99.90;;;;;;5047782;28;20560;-80
2021/05/03 09:05:12;;;;;;;5.23;4.00;;;16.70;99.90;;;;;;5062246;28;20691;-82
2021/05/03 09:07:51;;;;;;;7.37;4.60;;;18.00;99.90;;;;;;5065657;28;20252;-83
2021/05/03 09:10:19;;;;;;;6.10;4.53;;;17.50;99.90;;;;;;5050850;28;20308;-82
2021/05/03 09:12:45;;;;;;;5.10;4.33;;;17.10;99.90;;;;;;5049977;28;20209;-83
2021/05/03 09:15:12;;;;;;;5.33;4.40;;;16.90;99.90;;;;;;5033522;28;20231;-82
2021/05/03 09:17:40;;;;;;;5.47;4.00;;;16.00;99.90;;;;;;5031953;28;20262;-82
2021/05/03 09:20:20;;;;;;;5.23;4.17;;;15.50;99.90;;;;;;5048360;28;20216;-82
2021/05/03 09:22:53;;;;;;;5.23;4.00;;;15.90;99.90;;;;;;5051862;28;20254;-85
2021/05/03 09:25:35;;;;;;;7.03;4.70;;;15.70;99.90;;;;;;5051733;28;20187;-81
2021/05/03 09:28:07;;;;;;;5.97;4.33;;;15.40;99.90;;;;;;5051414;28;20220;-86
2021/05/03 09:30:36;;;;;;;5.67;4.07;;;15.40;99.90;;;;;;5052949;28;20224;-82
2021/05/03 09:33:28;;;;;;;8.07;4.63;;;15.40;99.90;;;;;;5049573;28;20240;-82
2021/05/03 09:36:07;;;;;;;5.27;4.33;;;16.50;99.90;;;;;;5068968;28;20213;-85
2021/05/03 09:38:38;;;;;;;4.90;3.80;;;17.40;99.90;;;;;;5052113;28;20236;-85
2021/05/03 09:41:16;;;;;;;5.23;3.73;;;18.60;99.90;;;;;;5051450;28;20217;-85
2021/05/03 09:43:54;;;;;;;6.23;4.53;;;19.60;99.90;;;;;;5052692;28;20600;-85
2021/05/03 09:46:31;;;;;;;6.80;5.13;;;19.30;99.90;;;;;;5055653;28;20233;-85
2021/05/03 09:49:00;;;;;;;6.83;5.10;;;18.40;99.90;;;;;;5054570;28;20221;-84
2021/05/03 09:51:33;;;;;;;6.33;4.63;;;16.70;99.90;;;;;;5053234;28;20225;-85
2021/05/03 09:54:12;;;;;;;8.00;3.97;;;16.40;99.90;;;;;;5071740;28;20248;-85
2021/05/03 09:57:05;;;;;;;5.67;4.47;;;16.70;99.90;;;;;;5054040;28;20228;-85
2021/05/03 09:59:44;;;;;;;8.17;4.57;;;17.90;99.90;;;;;;5049938;28;20221;-86
2021/05/03 10:05:02;;;;;;;4.20;3.60;;;16.90;99.90;;;;;;5072646;28;20185;-85
2021/05/03 10:07:30;;;;;;;7.83;4.20;;;17.60;99.90;;;;;;5072010;28;20228;-85
2021/05/03 10:10:07;;;;;;;5.10;3.30;;;18.30;99.90;;;;;;5043651;28;20224;-85
2021/05/03 10:12:33;;;;;;;8.10;4.07;;;17.90;99.90;;;;;;5073394;28;20224;-84
2021/05/03 10:15:02;;;;;;;4.40;3.30;;;19.00;99.90;;;;;;5053776;28;20846;-83
2021/05/03 10:17:30;;;;;;;5.77;3.63;;;19.40;99.90;;;;;;5053555;28;20228;-85
2021/05/03 10:19:59;;;;;;;6.90;3.77;;;18.50;99.90;;;;;;5054134;28;20233;-85
2021/05/03 10:22:26;;;;;;;7.00;3.50;;;18.70;99.90;;;;;;5054422;28;20216;-85
2021/05/03 10:24:55;;;;;;;6.30;4.07;;;18.80;99.90;;;;;;5021373;28;20217;-85
2021/05/03 10:27:22;;;;;;;4.47;3.27;;;18.20;99.90;;;;;;5052789;28;20225;-85
2021/05/03 10:29:49;;;;;;;6.20;3.53;;;17.80;99.90;;;;;;5046062;28;20220;-86
2021/05/03 10:32:23;;;;;;;3.83;3.40;;;17.50;99.90;;;;;;5033957;28;20706;-86
2021/05/03 10:34:54;;;;;;;3.97;3.37;;;17.30;99.90;;;;;;5055042;28;20180;-86
2021/05/03 10:37:29;;;;;;;3.47;2.87;;;17.40;99.90;;;;;;5039180;28;20206;-85
2021/05/03 10:39:55;;;;;;;6.53;2.93;;;17.80;99.90;;;;;;5052011;28;20223;-85
2021/05/03 10:42:21;;;;;;;4.40;3.03;;;17.50;99.90;;;;;;5053208;28;20236;-84
2021/05/03 10:48:20;;;;;;;5.27;3.47;;;18.10;99.90;;;;;;5055296;28;20232;-85
2021/05/03 10:50:48;;;;;;;4.20;3.30;;;18.20;99.90;;;;;;5039536;28;20224;-85
2021/05/03 10:53:33;;;;;;;5.53;3.80;;;17.30;99.90;;;;;;5036795;28;20256;-85
2021/05/03 10:56:01;;;;;;;4.53;3.43;;;17.70;99.90;;;;;;5051459;28;20635;-85
2021/05/03 10:58:28;;;;;;;6.23;3.80;;;17.60;99.90;;;;;;5055972;28;20224;-86
2021/05/03 11:01:06;;;;;;;3.70;3.20;;;18.50;99.90;;;;;;5037748;28;20241;-85
2021/05/03 11:03:59;;;;;;;4.50;3.40;;;18.00;99.90;;;;;;5052268;28;20365;-84
2021/05/03 11:06:37;;;;;;;4.07;3.50;;;16.40;99.90;;;;;;5052529;28;20310;-85
2021/05/03 11:09:27;;;;;;;5.83;3.90;;;16.00;99.90;;;;;;5052946;28;20266;-86
2021/05/03 11:11:54;;;;;;;7.17;4.07;;;16.10;99.90;;;;;;5071441;28;20231;-84
2021/05/03 11:14:21;;;;;;;6.23;3.57;;;16.00;99.90;;;;;;5045043;28;20325;-86
2021/05/03 11:16:48;;;;;;;6.17;3.00;;;15.90;99.90;;;;;;5020823;28;20208;-86
2021/05/03 11:22:07;;;;;;;7.13;3.73;;;15.30;99.90;;;;;;5069934;28;20213;-86
2021/05/03 11:24:39;;;;;;;5.00;3.47;;;15.00;99.90;;;;;;5039266;28;20204;-86
2021/05/03 11:27:13;;;;;;;4.87;3.40;;;14.60;99.90;;;;;;5052256;28;20260;-85
2021/05/03 11:29:44;;;;;;;5.33;4.03;;;14.00;99.90;;;;;;5053217;28;20558;-86
2021/05/03 11:32:12;;;;;;;7.13;5.80;;;14.00;99.90;;;;;;5023902;28;20330;-85
2021/05/03 11:35:04;;;;;;;6.27;4.10;;;14.20;99.90;;;;;;5069854;28;20189;-87
2021/05/03 11:37:40;;;;;;;7.07;3.50;;;14.10;99.90;;;;;;5053391;28;20718;-86
2021/05/03 11:45:29;;;;;;;8.90;3.97;;;14.00;99.90;;;;;;5042831;28;20255;-89
2021/05/03 11:47:59;;;;;;;6.63;4.23;;;14.20;99.90;;;;;;5036629;28;20548;-87
2021/05/03 11:50:27;;;;;;;9.53;4.70;;;14.30;99.90;;;;;;5054076;28;20572;-86
2021/05/03 11:52:54;;;;;;;8.27;4.20;;;13.90;99.90;;;;;;5037243;28;20186;-86
2021/05/03 11:55:22;;;;;;;6.23;3.30;;;13.90;99.90;;;;;;5039140;28;20227;-87
2021/05/03 11:57:49;;;;;;;5.80;3.73;;;14.00;99.90;;;;;;5051273;28;20224;-84
2021/05/03 12:00:20;;;;;;;5.10;3.50;;;14.00;99.90;;;;;;5049004;28;20591;-85
2021/05/03 12:02:58;;;;;;;4.73;3.00;;;14.20;99.90;;;;;;5049776;28;20212;-84
2021/05/03 12:05:24;;;;;;;5.10;4.30;;;14.20;99.90;;;;;;5069539;28;20216;-87
2021/05/03 12:07:50;;;;;;;5.37;3.70;;;14.20;99.90;;;;;;5035102;28;20224;-85
2021/05/03 12:10:20;;;;;;;3.83;3.50;;;13.80;99.90;;;;;;5023439;28;20196;-85
2021/05/03 12:12:48;;;;;;;6.77;3.93;;;14.00;99.90;;;;;;5069762;28;20241;-84
2021/05/03 12:15:18;;;;;;;5.53;3.40;;;14.10;99.90;;;;;;5048892;28;20263;-87
2021/05/03 12:17:44;;;;;;;7.80;3.30;;;14.00;99.90;;;;;;5057393;28;20238;-85
2021/05/03 12:20:17;;;;;;;7.77;3.73;;;14.00;99.90;;;;;;5073251;28;20662;-85
2021/05/03 12:22:53;;;;;;;4.47;3.63;;;14.10;99.90;;;;;;5056400;28;20213;-86
2021/05/03 12:25:19;;;;;;;5.30;3.70;;;14.00;99.90;;;;;;5075038;28;20181;-83
2021/05/03 12:27:45;;;;;;;5.53;3.47;;;13.80;99.90;;;;;;5056148;28;20220;-86
2021/05/03 12:30:12;;;;;;;7.97;3.67;;;14.20;99.90;;;;;;5054746;28;20227;-86
2021/05/03 12:32:39;;;;;;;4.17;2.90;;;14.20;99.90;;;;;;5038861;28;20216;-87
2021/05/03 12:35:15;;;;;;;4.50;3.57;;;14.20;99.90;;;;;;5071835;28;20212;-84
2021/05/03 12:37:41;;;;;;;3.07;2.67;;;14.30;99.90;;;;;;5054901;28;20619;-88
2021/05/03 12:40:22;;;;;;;5.03;3.63;;;14.10;99.90;;;;;;5057350;28;20418;-87
2021/05/03 12:42:51;;;;;;;3.57;2.90;;;14.10;99.90;;;;;;5055595;28;20860;-86
2021/05/03 12:48:32;;;;;;;7.97;2.93;;;14.30;99.90;;;;;;5075536;28;20220;-85
2021/05/03 12:57:18;;;;;;;4.47;1.93;;;14.30;99.90;;;;;;5071774;28;20241;-86
2021/05/03 13:02:29;;;;;;;4.40;2.50;;;14.40;99.90;;;;;;5057497;28;20221;-88
2021/05/03 13:05:11;;;;;;;4.03;2.23;;;14.50;99.90;;;;;;5041534;28;20225;-85
2021/05/03 13:29:01;;;;;;;2.10;1.10;;;13.70;99.90;;;;;;5070900;28;20305;-85
2021/05/03 13:31:28;;;;;;;1.20;1.10;;;13.50;99.90;;;;;;5055781;28;20308;-86
2021/05/03 13:33:54;;;;;;;1.43;1.30;;;13.50;99.90;;;;;;5055787;28;20213;-85
2021/05/03 13:36:21;;;;;;;2.10;1.60;;;13.40;99.90;;;;;;5073194;28;20640;-85
2021/05/03 13:38:48;;;;;;;1.60;1.10;;;13.60;99.90;;;;;;5040057;28;20725;-87
2021/05/03 13:41:14;;;;;;;2.97;1.10;;;13.40;99.90;;;;;;5024332;28;20240;-85
2021/05/03 13:43:40;;;;;;;0.97;0.80;;;13.50;99.90;;;;;;5037196;28;20189;-86
2021/05/03 13:46:06;;;;;;;2.10;1.50;;;13.40;99.90;;;;;;5071566;28;20550;-86
2021/05/03 13:48:32;;;;;;;3.47;1.13;;;13.30;99.90;;;;;;5021031;28;20308;-85
2021/05/03 13:50:57;;;;;;;3.20;1.07;;;13.40;99.90;;;;;;5022375;28;21068;-85
2021/05/03 13:53:23;;;;;;;1.03;0.70;;;13.20;99.90;;;;;;5056017;28;20216;-83
2021/05/03 13:55:49;;;;;;;0.93;0.90;;;13.00;99.90;;;;;;5055656;28;20272;-84
2021/05/03 13:58:15;;;;;;;1.10;1.00;;;13.10;99.90;;;;;;5041706;28;21052;-85
2021/05/03 14:00:41;;;;;;;1.77;0.87;;;13.10;99.90;;;;;;5039079;28;20262;-84